Time;durP1;ratioP1;P1;durP2;ratioP2;P2;SDS_P1;SDS_P2;PMS_P1;PMS_P2;Temp;Humidity;BMP_temperature;BMP_pressure;BME280_temperature;BME280_humidity;BME280_pressure;Samples;Min_cycle;Max_cycle;Signal;HPM_P1;HPM_P2
2021/06/29 00:00:24;;;;;;;17.90;16.50;;;19.80;70.40;;;;;;5120910;28;20097;-72
2021/06/29 00:03:06;;;;;;;18.30;16.92;;;19.80;70.90;;;;;;5117196;28;20043;-73
2021/06/29 00:05:39;;;;;;;18.85;17.27;;;19.80;70.80;;;;;;5116205;28;20043;-73
2021/06/29 00:08:11;;;;;;;18.10;16.50;;;19.70;70.80;;;;;;5115269;28;20146;-72
2021/06/29 00:10:45;;;;;;;17.75;16.42;;;19.70;70.40;;;;;;5101978;28;20070;-72
2021/06/29 00:13:20;;;;;;;17.98;16.65;;;19.70;70.50;;;;;;5130499;28;20506;-72
2021/06/29 00:15:52;;;;;;;18.02;16.65;;;19.80;70.60;;;;;;5116211;28;20050;-71
2021/06/29 00:18:24;;;;;;;18.30;16.90;;;19.70;70.80;;;;;;5115787;28;20871;-72
2021/06/29 00:20:58;;;;;;;18.50;17.10;;;19.70;70.70;;;;;;5118855;28;20135;-72
2021/06/29 00:23:37;;;;;;;17.55;16.25;;;19.70;70.70;;;;;;5118270;28;20138;-72
2021/06/29 00:26:09;;;;;;;18.58;16.92;;;19.70;71.10;;;;;;5116099;28;20054;-72
2021/06/29 00:28:41;;;;;;;17.55;16.25;;;19.70;71.40;;;;;;5120389;28;20059;-72
2021/06/29 00:31:15;;;;;;;17.73;16.42;;;19.60;71.90;;;;;;5121438;28;20090;-72
2021/06/29 00:33:48;;;;;;;17.75;16.25;;;19.60;72.60;;;;;;5116789;28;20054;-72
2021/06/29 00:36:20;;;;;;;17.58;16.27;;;19.60;72.80;;;;;;5113019;28;20849;-72
2021/06/29 00:38:52;;;;;;;17.42;16.08;;;19.70;73.30;;;;;;5119505;28;20640;-72
2021/06/29 00:41:24;;;;;;;18.17;16.67;;;19.60;73.70;;;;;;5118415;28;20051;-72
2021/06/29 00:43:56;;;;;;;17.25;15.95;;;19.60;73.80;;;;;;5114484;28;20057;-72
2021/06/29 00:46:28;;;;;;;17.52;16.15;;;19.50;74.80;;;;;;5116350;28;20047;-73
2021/06/29 00:49:00;;;;;;;18.17;16.77;;;19.50;75.30;;;;;;5114439;28;20047;-72
2021/06/29 00:51:34;;;;;;;17.77;16.33;;;19.50;75.90;;;;;;5120329;28;20070;-72
2021/06/29 00:54:06;;;;;;;17.63;16.20;;;19.50;75.30;;;;;;5120251;28;20063;-72
2021/06/29 00:56:38;;;;;;;17.95;16.25;;;19.50;76.20;;;;;;5119838;28;20049;-72
2021/06/29 00:59:10;;;;;;;17.60;16.30;;;19.50;77.20;;;;;;5119452;28;20532;-72
2021/06/29 01:01:42;;;;;;;17.95;16.55;;;19.50;77.40;;;;;;5125394;28;20158;-72
2021/06/29 01:04:14;;;;;;;18.08;16.67;;;19.40;78.00;;;;;;5120372;28;20558;-72
2021/06/29 01:06:47;;;;;;;17.50;16.20;;;19.40;78.00;;;;;;5117778;28;20082;-73
2021/06/29 01:09:20;;;;;;;18.20;16.70;;;19.30;77.60;;;;;;5122460;28;20042;-73
2021/06/29 01:11:52;;;;;;;18.33;16.88;;;19.20;77.60;;;;;;5122291;28;20102;-71
2021/06/29 01:14:24;;;;;;;18.20;16.70;;;19.20;77.40;;;;;;5121065;28;20126;-71
2021/06/29 01:16:57;;;;;;;17.50;16.20;;;19.10;77.40;;;;;;5123771;28;20138;-71
2021/06/29 01:19:49;;;;;;;17.88;16.42;;;19.20;78.10;;;;;;5123345;28;20050;-71
2021/06/29 01:22:24;;;;;;;17.90;16.50;;;19.20;79.20;;;;;;5120249;28;20529;-70
2021/06/29 01:24:58;;;;;;;17.55;16.25;;;19.10;79.20;;;;;;5121768;28;20047;-71
2021/06/29 01:27:38;;;;;;;17.85;16.35;;;19.00;78.00;;;;;;5119312;28;20062;-73
2021/06/29 01:32:50;;;;;;;17.52;16.13;;;19.10;78.30;;;;;;5119532;28;20055;-72
2021/06/29 01:35:22;;;;;;;17.67;16.38;;;19.10;78.40;;;;;;5120987;28;20047;-73
2021/06/29 01:37:54;;;;;;;17.95;16.55;;;19.10;78.50;;;;;;5119544;28;20069;-73
2021/06/29 01:40:30;;;;;;;18.17;16.77;;;19.10;78.50;;;;;;5121947;28;20062;-73
2021/06/29 01:43:02;;;;;;;18.30;16.88;;;19.10;80.10;;;;;;5118603;28;20129;-73
2021/06/29 01:45:33;;;;;;;18.02;16.63;;;19.00;79.90;;;;;;5120222;28;20070;-73
2021/06/29 01:48:16;;;;;;;17.90;16.60;;;19.00;78.80;;;;;;5102182;28;20036;-72
2021/06/29 01:50:53;;;;;;;18.48;17.08;;;18.90;79.90;;;;;;5119736;28;20110;-72
2021/06/29 01:53:25;;;;;;;18.42;17.02;;;18.90;80.10;;;;;;5121199;28;20090;-73
2021/06/29 01:55:56;;;;;;;18.52;17.13;;;19.00;79.60;;;;;;5117894;28;20713;-73
2021/06/29 01:58:29;;;;;;;18.58;17.08;;;19.00;79.70;;;;;;5121434;28;20497;-73
2021/06/29 02:01:01;;;;;;;18.70;17.20;;;19.00;78.50;;;;;;5120400;28;20133;-73
2021/06/29 02:03:33;;;;;;;18.50;17.02;;;19.00;80.30;;;;;;5117962;28;20062;-72
2021/06/29 02:06:05;;;;;;;18.88;17.25;;;18.90;79.40;;;;;;5119319;28;20056;-73
2021/06/29 02:08:38;;;;;;;18.73;17.13;;;18.90;79.00;;;;;;5121667;28;20047;-73
2021/06/29 02:11:11;;;;;;;18.38;16.98;;;18.90;79.80;;;;;;5118724;28;20139;-73
2021/06/29 02:13:42;;;;;;;18.35;16.95;;;18.80;80.60;;;;;;5120924;28;20134;-73
2021/06/29 02:16:14;;;;;;;18.70;17.20;;;18.80;80.20;;;;;;5116908;28;20091;-72
2021/06/29 02:18:46;;;;;;;17.80;16.42;;;18.80;80.50;;;;;;5121960;28;20068;-73
2021/06/29 02:21:18;;;;;;;18.27;16.77;;;18.60;80.00;;;;;;5120308;28;20056;-73
2021/06/29 02:23:50;;;;;;;17.88;16.48;;;18.70;79.60;;;;;;5120845;28;20101;-73
2021/06/29 02:26:22;;;;;;;18.20;16.73;;;18.70;79.30;;;;;;5120987;28;20051;-73
2021/06/29 02:28:54;;;;;;;18.17;16.77;;;18.70;79.70;;;;;;5118664;28;20541;-72
2021/06/29 02:31:26;;;;;;;18.23;16.80;;;18.70;79.90;;;;;;5117542;28;20163;-73
2021/06/29 02:33:58;;;;;;;17.75;16.42;;;18.70;79.50;;;;;;5119844;28;20055;-73
2021/06/29 02:36:30;;;;;;;18.00;16.60;;;18.70;80.00;;;;;;5117428;28;20062;-72
2021/06/29 02:39:04;;;;;;;17.80;16.45;;;18.60;80.00;;;;;;5118386;28;20121;-72
2021/06/29 02:41:35;;;;;;;17.73;16.42;;;18.60;80.10;;;;;;5116790;28;20101;-72
2021/06/29 02:44:09;;;;;;;18.60;17.20;;;18.50;80.20;;;;;;5120700;28;20038;-72
2021/06/29 02:46:41;;;;;;;18.08;16.67;;;18.60;79.70;;;;;;5136096;28;20054;-72
2021/06/29 02:49:13;;;;;;;18.30;16.90;;;18.50;81.10;;;;;;5124766;28;20039;-71
2021/06/29 02:51:45;;;;;;;18.08;16.67;;;18.40;81.40;;;;;;5106489;28;20058;-73
2021/06/29 02:54:17;;;;;;;17.60;16.30;;;18.30;81.00;;;;;;5118634;28;20050;-71
2021/06/29 02:56:49;;;;;;;17.67;16.27;;;18.30;81.10;;;;;;5117352;28;20055;-71
2021/06/29 02:59:21;;;;;;;18.75;17.15;;;18.20;81.30;;;;;;5118299;28;20061;-71
2021/06/29 03:01:53;;;;;;;17.65;16.27;;;18.20;81.20;;;;;;5123256;28;20141;-71
2021/06/29 03:04:25;;;;;;;17.90;16.42;;;18.20;82.10;;;;;;5122238;28;20119;-71
2021/06/29 03:06:57;;;;;;;18.38;16.77;;;18.20;81.90;;;;;;5116508;28;20117;-71
2021/06/29 03:09:29;;;;;;;17.50;16.20;;;18.10;82.30;;;;;;5119760;28;20058;-71
2021/06/29 03:12:01;;;;;;;17.50;16.20;;;18.10;82.00;;;;;;5116731;28;20133;-71
2021/06/29 03:14:36;;;;;;;17.10;15.80;;;18.00;82.50;;;;;;5117740;28;20055;-71
2021/06/29 03:17:08;;;;;;;17.23;15.93;;;17.90;82.60;;;;;;5115311;28;20059;-71
2021/06/29 03:19:40;;;;;;;17.52;16.13;;;17.90;83.20;;;;;;5120717;28;20043;-72
2021/06/29 03:22:12;;;;;;;17.30;15.93;;;17.70;83.30;;;;;;5116499;28;20078;-71
2021/06/29 03:24:44;;;;;;;17.35;15.98;;;17.70;82.70;;;;;;5117077;28;20070;-71
2021/06/29 03:27:17;;;;;;;17.30;16.00;;;17.80;81.70;;;;;;5133486;28;20434;-71
2021/06/29 03:29:49;;;;;;;16.92;15.63;;;17.70;81.90;;;;;;5120650;28;20158;-71
2021/06/29 03:32:21;;;;;;;17.17;15.88;;;17.80;81.50;;;;;;5115755;28;20063;-71
2021/06/29 03:34:54;;;;;;;17.67;16.27;;;17.70;82.20;;;;;;5121295;28;20118;-71
2021/06/29 03:37:25;;;;;;;17.90;16.58;;;17.80;83.40;;;;;;5120787;28;20749;-71
2021/06/29 03:39:57;;;;;;;17.60;16.30;;;17.80;83.80;;;;;;5122088;28;20647;-71
2021/06/29 03:42:29;;;;;;;17.65;16.35;;;17.70;84.30;;;;;;5120059;28;20536;-71
2021/06/29 03:45:01;;;;;;;17.70;16.30;;;17.70;84.60;;;;;;5118243;28;20506;-71
2021/06/29 03:47:34;;;;;;;17.83;16.30;;;17.70;84.50;;;;;;5117420;28;20126;-71
2021/06/29 03:50:06;;;;;;;18.20;16.80;;;17.60;84.10;;;;;;5118287;28;20134;-71
2021/06/29 03:52:38;;;;;;;17.70;16.27;;;17.60;83.30;;;;;;5118435;28;21258;-72
2021/06/29 03:55:11;;;;;;;17.33;15.95;;;17.60;83.20;;;;;;5121344;28;20055;-72
2021/06/29 03:57:43;;;;;;;17.48;16.05;;;17.60;83.20;;;;;;5115769;28;20047;-72
2021/06/29 04:00:15;;;;;;;17.05;15.73;;;17.60;83.70;;;;;;5119562;28;20126;-72
2021/06/29 04:02:47;;;;;;;16.85;15.63;;;17.60;83.60;;;;;;5119605;28;20062;-71
2021/06/29 04:05:19;;;;;;;16.70;15.40;;;17.60;83.80;;;;;;5116677;28;20121;-72
2021/06/29 04:07:51;;;;;;;17.15;15.68;;;17.50;82.90;;;;;;5119293;28;20043;-72
2021/06/29 04:10:23;;;;;;;16.73;15.40;;;17.60;82.50;;;;;;5115469;28;20066;-72
2021/06/29 04:12:55;;;;;;;17.02;15.73;;;17.60;83.00;;;;;;5117785;28;20110;-73
2021/06/29 04:15:27;;;;;;;16.60;15.30;;;17.60;83.00;;;;;;5119186;28;20085;-72
2021/06/29 04:17:59;;;;;;;16.75;15.45;;;17.60;82.40;;;;;;5116537;28;20047;-72
2021/06/29 04:20:32;;;;;;;16.90;15.57;;;17.70;82.40;;;;;;5116660;28;20047;-72
2021/06/29 04:23:05;;;;;;;16.58;15.27;;;17.70;81.90;;;;;;5118796;28;20114;-71
2021/06/29 04:25:36;;;;;;;16.60;15.30;;;17.70;83.00;;;;;;5117188;28;20047;-72
2021/06/29 04:28:08;;;;;;;17.10;15.80;;;17.60;82.60;;;;;;5117804;28;20651;-71
2021/06/29 04:30:40;;;;;;;16.83;15.57;;;17.50;83.10;;;;;;5115482;28;20051;-73
2021/06/29 04:33:12;;;;;;;16.92;15.63;;;17.50;83.20;;;;;;5117335;28;20106;-72
2021/06/29 04:35:44;;;;;;;16.85;15.55;;;17.50;83.80;;;;;;5114938;28;20058;-72
2021/06/29 04:38:16;;;;;;;16.95;15.60;;;17.40;84.10;;;;;;5116921;28;20059;-72
2021/06/29 04:40:48;;;;;;;17.00;15.70;;;17.50;83.70;;;;;;5116073;28;20039;-73
2021/06/29 04:43:20;;;;;;;16.88;15.57;;;17.50;82.90;;;;;;5118506;28;20039;-72
2021/06/29 04:45:52;;;;;;;16.77;15.48;;;17.60;82.70;;;;;;5116283;28;20122;-70
2021/06/29 04:48:24;;;;;;;16.60;15.30;;;17.60;83.30;;;;;;5116480;28;20885;-72
2021/06/29 04:50:56;;;;;;;16.83;15.38;;;17.60;82.90;;;;;;5120648;28;20063;-73
2021/06/29 04:53:28;;;;;;;16.25;14.95;;;17.60;82.00;;;;;;5118744;28;20663;-74
2021/06/29 04:56:00;;;;;;;15.77;14.57;;;17.60;81.20;;;;;;5118010;28;20047;-72
2021/06/29 04:58:33;;;;;;;16.80;15.60;;;17.50;82.70;;;;;;5118434;28;20433;-73
2021/06/29 05:01:05;;;;;;;17.45;16.15;;;17.50;82.80;;;;;;5116315;28;20043;-73
2021/06/29 05:03:39;;;;;;;17.40;16.05;;;17.60;82.10;;;;;;5116987;28;20050;-74
2021/06/29 05:06:11;;;;;;;17.02;15.73;;;17.60;82.70;;;;;;5112561;28;20047;-74
2021/06/29 05:08:44;;;;;;;16.42;15.07;;;17.60;83.00;;;;;;5112281;28;20054;-71
2021/06/29 05:11:16;;;;;;;16.27;15.07;;;17.70;82.90;;;;;;5116327;28;20058;-71
2021/06/29 05:13:47;;;;;;;16.52;15.23;;;17.70;83.20;;;;;;5119522;28;20074;-71
2021/06/29 05:16:19;;;;;;;16.77;15.48;;;17.60;82.80;;;;;;5118028;28;20055;-71
2021/06/29 05:18:52;;;;;;;16.55;15.25;;;17.60;82.20;;;;;;5128003;28;20039;-71
2021/06/29 05:21:24;;;;;;;17.02;15.73;;;17.60;82.20;;;;;;5113778;28;20043;-71
2021/06/29 05:23:55;;;;;;;16.83;15.52;;;17.60;82.70;;;;;;5114911;28;20067;-71
2021/06/29 05:26:27;;;;;;;17.10;15.80;;;17.60;83.00;;;;;;5114269;28;20099;-70
2021/06/29 05:29:00;;;;;;;16.75;15.45;;;17.60;83.70;;;;;;5116106;28;20054;-71
2021/06/29 05:31:32;;;;;;;16.95;15.65;;;17.60;83.70;;;;;;5120714;28;20075;-69
2021/06/29 05:34:05;;;;;;;16.65;15.38;;;17.60;83.30;;;;;;5111838;28;20103;-70
2021/06/29 05:36:37;;;;;;;17.10;15.48;;;17.50;83.80;;;;;;5109239;28;20058;-71
2021/06/29 05:39:09;;;;;;;16.50;15.27;;;17.50;83.40;;;;;;5117143;28;20471;-70
2021/06/29 05:41:42;;;;;;;16.33;15.13;;;17.60;83.30;;;;;;5121943;28;20134;-70
2021/06/29 05:44:14;;;;;;;16.42;15.05;;;17.60;84.10;;;;;;5120952;28;20094;-70
2021/06/29 05:46:47;;;;;;;17.23;15.73;;;17.60;83.50;;;;;;5122359;28;20130;-70
2021/06/29 05:49:19;;;;;;;16.75;15.48;;;17.70;83.20;;;;;;5120411;28;20154;-70
2021/06/29 05:51:51;;;;;;;16.80;15.50;;;17.80;82.90;;;;;;5121896;28;20137;-70
2021/06/29 05:54:23;;;;;;;16.42;15.23;;;18.00;81.80;;;;;;5121780;28;20047;-70
2021/06/29 05:56:54;;;;;;;17.02;15.63;;;18.20;80.90;;;;;;5120590;28;20243;-70
2021/06/29 05:59:26;;;;;;;16.85;15.63;;;18.30;81.00;;;;;;5123227;28;20162;-70
2021/06/29 06:01:58;;;;;;;17.80;16.40;;;18.50;82.10;;;;;;5120471;28;20142;-71
2021/06/29 06:04:30;;;;;;;16.80;15.60;;;18.60;83.30;;;;;;5120407;28;20126;-70
2021/06/29 06:07:03;;;;;;;16.95;15.70;;;18.60;81.80;;;;;;5106046;28;20462;-70
2021/06/29 06:09:35;;;;;;;16.98;15.68;;;18.70;81.60;;;;;;5123411;28;20130;-69
2021/06/29 06:12:07;;;;;;;17.38;16.08;;;18.60;81.40;;;;;;5120739;28;20129;-70
2021/06/29 06:14:39;;;;;;;17.42;16.08;;;18.50;81.10;;;;;;5123390;28;20054;-69
2021/06/29 06:17:11;;;;;;;17.55;16.25;;;18.50;81.70;;;;;;5121864;28;20138;-69
2021/06/29 06:19:43;;;;;;;17.48;16.13;;;18.50;81.30;;;;;;5121030;28;20592;-70
2021/06/29 06:22:15;;;;;;;17.42;16.13;;;18.40;81.60;;;;;;5122965;28;20049;-70
2021/06/29 06:24:47;;;;;;;17.85;16.40;;;18.40;82.10;;;;;;5119821;28;20126;-70
2021/06/29 06:27:19;;;;;;;17.23;15.93;;;18.30;82.20;;;;;;5119792;28;20054;-70
2021/06/29 06:29:51;;;;;;;16.88;15.68;;;18.30;82.90;;;;;;5122508;28;20070;-69
2021/06/29 06:32:23;;;;;;;17.50;16.20;;;18.40;82.50;;;;;;5119818;28;20125;-70
2021/06/29 06:34:55;;;;;;;17.40;16.10;;;18.60;82.10;;;;;;5123392;28;20098;-69
2021/06/29 06:37:27;;;;;;;17.63;16.27;;;18.80;81.60;;;;;;5118404;28;20565;-70
2021/06/29 06:39:58;;;;;;;17.77;16.38;;;18.90;82.10;;;;;;5121221;28;20039;-70
2021/06/29 06:42:31;;;;;;;17.52;16.20;;;18.90;81.30;;;;;;5119669;28;20039;-70
2021/06/29 06:45:05;;;;;;;18.08;16.77;;;18.90;81.30;;;;;;5121557;28;20043;-70
2021/06/29 06:47:37;;;;;;;17.92;16.52;;;19.10;81.70;;;;;;5119970;28;20612;-70
2021/06/29 06:50:09;;;;;;;17.50;16.20;;;19.20;80.90;;;;;;5121373;28;20074;-70
2021/06/29 06:52:41;;;;;;;17.58;16.27;;;19.30;81.00;;;;;;5117995;28;20051;-69
2021/06/29 06:55:13;;;;;;;17.85;16.55;;;19.30;80.60;;;;;;5120497;28;20122;-70
2021/06/29 06:57:46;;;;;;;17.55;16.20;;;19.30;80.60;;;;;;5119321;28;20053;-70
2021/06/29 07:00:19;;;;;;;17.52;16.23;;;19.30;81.00;;;;;;5120237;28;20443;-70
2021/06/29 07:02:54;;;;;;;17.52;16.13;;;19.30;80.00;;;;;;5120402;28;20042;-69
2021/06/29 07:05:26;;;;;;;17.92;16.50;;;19.50;80.00;;;;;;5119404;28;20746;-70
2021/06/29 07:07:58;;;;;;;18.02;16.63;;;19.60;79.20;;;;;;5121586;28;20051;-70
2021/06/29 07:10:30;;;;;;;18.08;16.67;;;19.90;78.40;;;;;;5123541;28;20082;-70
2021/06/29 07:13:02;;;;;;;18.23;16.77;;;20.10;77.30;;;;;;5121694;28;20511;-69
2021/06/29 07:15:34;;;;;;;18.02;16.63;;;20.20;78.10;;;;;;5118724;28;20154;-70
2021/06/29 07:18:06;;;;;;;17.75;16.42;;;20.10;77.50;;;;;;5117808;28;20066;-70
2021/06/29 07:20:38;;;;;;;17.85;16.45;;;20.00;77.90;;;;;;5117128;28;20921;-70
2021/06/29 07:23:11;;;;;;;18.05;16.65;;;19.90;76.20;;;;;;5120792;28;20622;-70
2021/06/29 07:25:43;;;;;;;18.15;16.75;;;19.90;77.60;;;;;;5130952;28;20697;-70
2021/06/29 07:28:15;;;;;;;18.33;17.02;;;20.00;77.20;;;;;;5118357;28;20138;-70
2021/06/29 07:30:47;;;;;;;18.58;16.98;;;20.20;75.40;;;;;;5118456;28;20433;-70
2021/06/29 07:33:19;;;;;;;18.17;16.77;;;20.40;76.60;;;;;;5133911;28;20473;-70
2021/06/29 07:35:51;;;;;;;17.90;16.60;;;20.60;76.50;;;;;;5134134;28;20520;-69
2021/06/29 07:38:23;;;;;;;17.30;16.00;;;20.60;74.70;;;;;;5121580;28;20074;-70
2021/06/29 07:40:55;;;;;;;17.30;16.00;;;20.40;74.40;;;;;;5137231;28;20654;-70
2021/06/29 07:43:27;;;;;;;16.83;15.52;;;20.20;74.80;;;;;;5119738;28;20077;-71
2021/06/29 07:45:59;;;;;;;17.25;15.90;;;20.20;75.60;;;;;;5119557;28;20038;-70
2021/06/29 07:48:31;;;;;;;17.60;16.20;;;20.40;76.30;;;;;;5120818;28;20047;-70
2021/06/29 07:51:05;;;;;;;17.85;16.55;;;20.50;73.40;;;;;;5119032;28;20098;-70
2021/06/29 07:53:38;;;;;;;17.42;16.13;;;20.60;70.50;;;;;;5120681;28;20140;-69
2021/06/29 07:56:17;;;;;;;17.48;16.08;;;20.70;71.60;;;;;;5118218;28;20047;-68
2021/06/29 07:58:49;;;;;;;17.42;16.13;;;20.80;69.10;;;;;;5118529;28;20573;-72
2021/06/29 08:01:21;;;;;;;17.38;16.08;;;21.00;67.00;;;;;;5104269;28;20126;-70
2021/06/29 08:03:53;;;;;;;17.90;16.50;;;21.20;66.20;;;;;;5119447;28;20050;-69
2021/06/29 08:06:25;;;;;;;17.90;16.50;;;21.40;65.90;;;;;;5119058;28;20075;-69
2021/06/29 08:08:56;;;;;;;17.70;16.40;;;21.60;61.70;;;;;;5120993;28;20046;-69
2021/06/29 08:11:28;;;;;;;17.63;16.33;;;21.70;61.70;;;;;;5119661;28;20150;-68
2021/06/29 08:14:00;;;;;;;17.10;15.80;;;21.90;60.40;;;;;;5118567;28;20051;-68
2021/06/29 08:16:32;;;;;;;17.42;16.13;;;21.80;59.60;;;;;;5115890;28;20134;-69
2021/06/29 08:19:04;;;;;;;18.17;16.88;;;21.90;61.00;;;;;;5115383;28;20413;-68
2021/06/29 08:21:37;;;;;;;18.10;16.75;;;22.00;59.90;;;;;;5117565;28;20074;-68
2021/06/29 08:24:09;;;;;;;18.63;17.13;;;22.10;60.40;;;;;;5119634;28;20040;-68
2021/06/29 08:26:41;;;;;;;17.77;16.48;;;22.40;60.60;;;;;;5118411;28;20351;-68
2021/06/29 08:29:13;;;;;;;17.60;16.30;;;22.30;58.80;;;;;;5119061;28;20043;-69
2021/06/29 08:31:45;;;;;;;17.10;15.80;;;22.20;58.40;;;;;;5134667;28;20137;-71
2021/06/29 08:34:17;;;;;;;17.60;16.00;;;22.50;55.60;;;;;;5117055;28;20039;-69
2021/06/29 08:36:49;;;;;;;17.10;15.80;;;22.70;61.10;;;;;;5120906;28;20051;-69
2021/06/29 08:39:21;;;;;;;17.90;16.60;;;22.80;60.00;;;;;;5103338;28;20105;-70
2021/06/29 08:41:53;;;;;;;17.55;16.25;;;23.00;59.00;;;;;;5117915;28;20042;-69
2021/06/29 08:44:25;;;;;;;17.70;16.40;;;23.20;64.00;;;;;;5120114;28;20049;-69
2021/06/29 08:46:57;;;;;;;17.67;16.38;;;23.30;60.40;;;;;;5117551;28;20098;-69
2021/06/29 08:49:29;;;;;;;18.30;16.90;;;23.30;63.10;;;;;;5119550;28;20039;-69
2021/06/29 08:52:06;;;;;;;18.33;16.92;;;23.40;56.20;;;;;;5117751;28;20055;-69
2021/06/29 08:54:38;;;;;;;17.92;16.63;;;23.40;57.90;;;;;;5118321;28;20040;-70
2021/06/29 08:57:10;;;;;;;17.40;16.10;;;23.50;61.00;;;;;;5118185;28;20138;-70
2021/06/29 08:59:42;;;;;;;17.85;16.55;;;23.40;59.10;;;;;;5116631;28;20126;-69
2021/06/29 09:02:15;;;;;;;17.38;16.08;;;23.50;58.50;;;;;;5120734;28;20078;-69
2021/06/29 09:04:55;;;;;;;17.65;16.35;;;23.50;57.70;;;;;;5115809;28;20062;-68
2021/06/29 09:07:29;;;;;;;17.50;16.20;;;23.60;53.60;;;;;;5099266;28;20440;-70
2021/06/29 09:10:06;;;;;;;16.95;15.75;;;23.70;56.10;;;;;;5117921;28;20046;-68
2021/06/29 09:12:50;;;;;;;17.17;15.90;;;23.80;56.40;;;;;;5117349;28;20125;-69
2021/06/29 09:15:26;;;;;;;17.25;15.90;;;23.80;54.20;;;;;;5122577;28;20050;-68
2021/06/29 09:18:22;;;;;;;17.20;15.90;;;23.80;53.20;;;;;;5121181;28;20517;-68
2021/06/29 09:21:04;;;;;;;16.95;15.65;;;23.90;54.70;;;;;;5119738;28;20051;-69
2021/06/29 09:23:42;;;;;;;17.20;15.90;;;23.80;52.20;;;;;;5122267;28;20040;-69
2021/06/29 09:26:23;;;;;;;17.35;16.05;;;23.90;54.60;;;;;;5115023;28;20115;-69
2021/06/29 09:29:01;;;;;;;17.08;15.77;;;24.00;56.10;;;;;;5105609;28;20046;-69
2021/06/29 09:31:38;;;;;;;17.70;16.40;;;24.10;53.60;;;;;;5122172;28;20047;-69
2021/06/29 09:34:12;;;;;;;17.17;15.88;;;24.10;53.80;;;;;;5124938;28;20050;-68
2021/06/29 09:36:44;;;;;;;17.75;16.45;;;24.20;55.10;;;;;;5119501;28;20537;-70
2021/06/29 09:39:19;;;;;;;17.67;16.33;;;24.30;57.50;;;;;;5119838;28;20079;-69
2021/06/29 09:42:02;;;;;;;17.80;16.40;;;24.40;53.00;;;;;;5123579;28;20047;-69
2021/06/29 09:44:37;;;;;;;17.17;15.88;;;24.40;54.40;;;;;;5125144;28;20039;-69
2021/06/29 09:47:24;;;;;;;17.50;16.20;;;24.60;52.60;;;;;;5119850;28;20088;-69
2021/06/29 09:50:02;;;;;;;17.50;16.20;;;24.80;51.70;;;;;;5122528;28;20039;-69
2021/06/29 09:52:34;;;;;;;17.52;16.20;;;24.90;50.70;;;;;;5122125;28;20053;-69
2021/06/29 09:55:06;;;;;;;17.58;16.25;;;25.00;54.90;;;;;;5122665;28;20050;-68
2021/06/29 09:57:40;;;;;;;17.20;15.90;;;25.10;53.40;;;;;;5118803;28;20050;-69
2021/06/29 10:00:13;;;;;;;17.88;16.58;;;25.20;52.00;;;;;;5120746;28;20043;-68
2021/06/29 10:02:45;;;;;;;18.02;16.58;;;25.20;52.70;;;;;;5120095;28;20041;-68
2021/06/29 10:05:19;;;;;;;18.58;17.25;;;25.40;52.80;;;;;;5119543;28;20529;-68
2021/06/29 10:07:52;;;;;;;18.15;16.75;;;25.40;52.90;;;;;;5120049;28;20046;-69
2021/06/29 10:10:24;;;;;;;18.85;17.45;;;25.30;53.50;;;;;;5119335;28;20051;-69
2021/06/29 10:13:16;;;;;;;18.45;16.92;;;25.40;53.20;;;;;;5118452;28;20115;-69
2021/06/29 10:15:48;;;;;;;18.95;17.45;;;25.50;53.00;;;;;;5122684;28;20131;-69
2021/06/29 10:18:21;;;;;;;18.70;17.30;;;25.70;54.10;;;;;;5121419;28;20082;-68
2021/06/29 10:20:55;;;;;;;17.58;16.17;;;25.80;53.00;;;;;;5118546;28;20070;-69
2021/06/29 10:23:28;;;;;;;17.90;16.50;;;25.70;50.70;;;;;;5119140;28;20066;-70
2021/06/29 10:26:00;;;;;;;17.70;16.40;;;25.60;55.50;;;;;;5120642;28;20039;-69
2021/06/29 10:28:33;;;;;;;17.52;16.23;;;25.50;54.80;;;;;;5121771;28;20054;-69
2021/06/29 10:31:06;;;;;;;18.70;17.30;;;25.30;55.70;;;;;;5117777;28;20075;-69
2021/06/29 10:33:38;;;;;;;19.25;17.65;;;25.50;55.10;;;;;;5119820;28;20050;-69
2021/06/29 10:36:11;;;;;;;18.58;17.10;;;25.70;56.90;;;;;;5118617;28;20071;-70
2021/06/29 10:38:43;;;;;;;18.20;16.90;;;25.70;55.20;;;;;;5120932;28;20534;-69
2021/06/29 10:41:16;;;;;;;18.85;17.45;;;25.80;54.10;;;;;;5119782;28;20801;-69
2021/06/29 10:43:49;;;;;;;19.13;17.67;;;25.80;54.50;;;;;;5119342;28;20047;-70
2021/06/29 10:46:27;;;;;;;19.05;17.65;;;25.70;55.40;;;;;;5118376;28;20138;-70
2021/06/29 10:49:24;;;;;;;18.77;17.38;;;25.90;56.20;;;;;;5124956;28;20432;-69
2021/06/29 10:52:10;;;;;;;19.10;17.70;;;25.80;54.70;;;;;;5123162;28;20613;-69
2021/06/29 10:54:48;;;;;;;19.08;17.50;;;26.00;57.00;;;;;;5135986;28;20138;-69
2021/06/29 10:57:25;;;;;;;18.42;17.05;;;26.10;58.20;;;;;;5118387;28;20063;-69
2021/06/29 10:59:58;;;;;;;18.85;17.35;;;26.20;56.00;;;;;;5121449;28;20043;-69
2021/06/29 11:02:35;;;;;;;19.02;17.63;;;26.30;55.50;;;;;;5118197;28;20639;-69
2021/06/29 11:05:09;;;;;;;18.63;17.23;;;26.30;57.40;;;;;;5120322;28;20042;-69
2021/06/29 11:07:45;;;;;;;19.85;18.33;;;26.40;56.40;;;;;;5120432;28;20501;-69
2021/06/29 11:10:30;;;;;;;19.55;17.95;;;26.40;55.00;;;;;;5118245;28;20549;-69
2021/06/29 11:13:03;;;;;;;19.17;17.67;;;26.50;56.00;;;;;;5122908;28;20051;-70
2021/06/29 11:15:56;;;;;;;19.65;17.90;;;26.60;54.50;;;;;;5118423;28;20043;-69
2021/06/29 11:18:34;;;;;;;20.25;18.00;;;26.60;55.10;;;;;;5119544;28;20563;-70
2021/06/29 11:21:16;;;;;;;269.30;29.52;;;26.60;56.70;;;;;;5121435;28;20036;-68
2021/06/29 11:23:48;;;;;;;22.92;18.00;;;26.70;56.10;;;;;;5118668;28;20158;-70
2021/06/29 11:26:21;;;;;;;77.22;21.48;;;26.80;55.30;;;;;;5117848;28;20031;-69
2021/06/29 11:29:09;;;;;;;29.48;18.48;;;26.90;54.50;;;;;;5117751;28;20055;-69
2021/06/29 11:31:44;;;;;;;19.33;17.83;;;27.00;49.50;;;;;;5117899;28;20047;-71
2021/06/29 11:34:26;;;;;;;18.90;17.10;;;27.10;54.40;;;;;;5117673;28;20043;-69
2021/06/29 11:36:58;;;;;;;18.55;17.05;;;27.10;53.20;;;;;;5117011;28;20051;-71
2021/06/29 11:39:33;;;;;;;27.42;18.77;;;26.80;51.00;;;;;;5118486;28;20576;-69
2021/06/29 11:42:08;;;;;;;20.00;18.00;;;26.60;52.50;;;;;;5117042;28;20039;-70
2021/06/29 11:44:43;;;;;;;18.33;16.90;;;26.50;54.10;;;;;;5119512;28;20047;-69
2021/06/29 11:47:21;;;;;;;18.92;17.52;;;26.30;55.10;;;;;;5117904;28;20050;-70
2021/06/29 11:49:58;;;;;;;18.77;17.27;;;26.10;56.20;;;;;;5121439;28;20050;-69
2021/06/29 11:52:34;;;;;;;19.38;17.88;;;26.10;55.80;;;;;;5104628;28;20509;-69
2021/06/29 11:55:13;;;;;;;19.92;18.42;;;26.40;56.30;;;;;;5114840;28;20071;-70
2021/06/29 11:57:52;;;;;;;19.00;17.60;;;26.70;57.20;;;;;;5113782;28;20055;-69
2021/06/29 12:00:31;;;;;;;19.08;17.67;;;26.90;55.30;;;;;;5114775;28;20051;-69
2021/06/29 12:03:12;;;;;;;19.70;18.20;;;27.10;55.20;;;;;;5116458;28;20129;-70
2021/06/29 12:05:44;;;;;;;19.58;18.05;;;27.00;56.70;;;;;;5117276;28;20047;-70
2021/06/29 12:08:17;;;;;;;19.77;18.27;;;26.80;56.80;;;;;;5112563;28;20126;-70
2021/06/29 12:10:50;;;;;;;19.83;18.33;;;26.80;56.10;;;;;;5117303;28;20683;-69
2021/06/29 12:13:26;;;;;;;19.60;18.02;;;26.80;53.90;;;;;;5115662;28;20114;-70
2021/06/29 12:15:59;;;;;;;19.95;18.45;;;26.80;56.50;;;;;;5113794;28;20051;-70
2021/06/29 12:18:36;;;;;;;18.48;17.08;;;26.90;54.90;;;;;;5116840;28;20039;-70
2021/06/29 12:21:08;;;;;;;19.45;17.95;;;26.70;54.30;;;;;;5116375;28;20159;-69
2021/06/29 12:23:44;;;;;;;18.38;16.98;;;26.60;54.60;;;;;;5115992;28;20055;-68
2021/06/29 12:26:16;;;;;;;18.52;17.23;;;26.60;54.90;;;;;;5115359;28;20047;-69
2021/06/29 12:28:48;;;;;;;19.55;17.88;;;26.50;55.70;;;;;;5114638;28;20842;-69
2021/06/29 12:31:20;;;;;;;18.83;17.20;;;26.50;54.10;;;;;;5112592;28;20039;-69
2021/06/29 12:33:52;;;;;;;19.02;17.60;;;26.60;53.10;;;;;;5116688;28;20145;-69
2021/06/29 12:36:24;;;;;;;18.65;17.25;;;26.60;55.80;;;;;;5115833;28;20105;-69
2021/06/29 12:39:03;;;;;;;19.45;17.90;;;26.40;54.30;;;;;;5115459;28;20039;-69
2021/06/29 12:41:36;;;;;;;19.52;18.08;;;26.30;54.40;;;;;;5116847;28;20051;-70
2021/06/29 12:44:14;;;;;;;19.27;17.70;;;26.10;53.40;;;;;;5101915;28;20051;-69
2021/06/29 12:46:46;;;;;;;19.77;18.23;;;26.00;54.90;;;;;;5119356;28;20969;-69
2021/06/29 12:49:24;;;;;;;19.23;17.80;;;26.00;55.80;;;;;;5117521;28;20688;-71
2021/06/29 12:51:56;;;;;;;19.42;17.92;;;25.80;54.90;;;;;;5122799;28;20058;-69
2021/06/29 12:54:30;;;;;;;19.50;17.92;;;25.70;53.60;;;;;;5120455;28;20122;-69
2021/06/29 12:57:05;;;;;;;20.30;18.70;;;25.60;56.60;;;;;;5121903;28;20039;-70
2021/06/29 12:59:45;;;;;;;20.83;18.95;;;25.50;58.70;;;;;;5116725;28;20043;-69
2021/06/29 13:02:20;;;;;;;;;;;25.20;60.00;;;;;;5118801;28;20035;-69